sensor_id;sensor_type;location;lat;lon;timestamp;P1;durP1;ratioP1;P2;durP2;ratioP2
76745;SDS011;65671;49.976;20.038;2023-03-31T00:00:29;12.25;;;7.25;;
76745;SDS011;65671;49.976;20.038;2023-03-31T00:02:55;8.52;;;5.75;;
76745;SDS011;65671;49.976;20.038;2023-03-31T00:05:22;9.55;;;5.88;;
76745;SDS011;65671;49.976;20.038;2023-03-31T00:07:54;9.93;;;6.55;;
76745;SDS011;65671;49.976;20.038;2023-03-31T00:10:25;10.48;;;6.65;;
76745;SDS011;65671;49.976;20.038;2023-03-31T00:12:52;12.32;;;6.95;;
76745;SDS011;65671;49.976;20.038;2023-03-31T00:15:18;11.10;;;6.90;;
76745;SDS011;65671;49.976;20.038;2023-03-31T00:17:44;10.52;;;7.15;;
76745;SDS011;65671;49.976;20.038;2023-03-31T00:20:11;13.25;;;8.30;;
76745;SDS011;65671;49.976;20.038;2023-03-31T00:22:39;11.40;;;8.52;;
76745;SDS011;65671;49.976;20.038;2023-03-31T00:25:07;12.38;;;7.53;;
76745;SDS011;65671;49.976;20.038;2023-03-31T00:27:35;12.43;;;7.97;;
76745;SDS011;65671;49.976;20.038;2023-03-31T00:30:00;12.07;;;7.72;;
76745;SDS011;65671;49.976;20.038;2023-03-31T00:32:26;11.70;;;7.45;;
76745;SDS011;65671;49.976;20.038;2023-03-31T00:34:51;12.73;;;7.18;;
76745;SDS011;65671;49.976;20.038;2023-03-31T00:37:17;11.98;;;7.93;;
76745;SDS011;65671;49.976;20.038;2023-03-31T00:39:42;14.98;;;7.43;;
76745;SDS011;65671;49.976;20.038;2023-03-31T00:42:11;12.38;;;7.53;;
76745;SDS011;65671;49.976;20.038;2023-03-31T00:44:38;11.75;;;8.02;;
76745;SDS011;65671;49.976;20.038;2023-03-31T00:47:48;11.68;;;7.60;;
76745;SDS011;65671;49.976;20.038;2023-03-31T00:50:19;11.45;;;7.80;;
76745;SDS011;65671;49.976;20.038;2023-03-31T00:52:57;15.05;;;8.82;;
76745;SDS011;65671;49.976;20.038;2023-03-31T00:55:29;12.43;;;7.88;;
76745;SDS011;65671;49.976;20.038;2023-03-31T00:58:09;12.70;;;7.63;;
76745;SDS011;65671;49.976;20.038;2023-03-31T01:00:39;11.98;;;8.30;;
76745;SDS011;65671;49.976;20.038;2023-03-31T01:03:06;13.73;;;8.65;;
76745;SDS011;65671;49.976;20.038;2023-03-31T01:05:46;11.85;;;7.68;;
76745;SDS011;65671;49.976;20.038;2023-03-31T01:08:17;11.63;;;7.88;;
76745;SDS011;65671;49.976;20.038;2023-03-31T01:10:50;10.55;;;7.93;;
76745;SDS011;65671;49.976;20.038;2023-03-31T01:13:19;9.43;;;7.25;;
76745;SDS011;65671;49.976;20.038;2023-03-31T01:15:46;10.95;;;8.23;;
76745;SDS011;65671;49.976;20.038;2023-03-31T01:18:12;10.32;;;7.38;;
76745;SDS011;65671;49.976;20.038;2023-03-31T01:34:55;9.93;;;6.63;;
76745;SDS011;65671;49.976;20.038;2023-03-31T01:37:39;11.65;;;7.28;;
76745;SDS011;65671;49.976;20.038;2023-03-31T01:40:23;9.98;;;6.90;;
76745;SDS011;65671;49.976;20.038;2023-03-31T01:43:30;10.40;;;6.97;;
76745;SDS011;65671;49.976;20.038;2023-03-31T01:45:59;10.70;;;6.22;;
76745;SDS011;65671;49.976;20.038;2023-03-31T01:48:39;7.93;;;5.80;;
76745;SDS011;65671;49.976;20.038;2023-03-31T01:56:45;9.93;;;5.88;;
76745;SDS011;65671;49.976;20.038;2023-03-31T02:02:41;8.13;;;6.00;;
76745;SDS011;65671;49.976;20.038;2023-03-31T02:05:25;9.52;;;5.75;;
76745;SDS011;65671;49.976;20.038;2023-03-31T02:08:02;8.60;;;5.57;;
76745;SDS011;65671;49.976;20.038;2023-03-31T02:10:33;9.52;;;5.43;;
76745;SDS011;65671;49.976;20.038;2023-03-31T02:13:00;7.63;;;5.45;;
76745;SDS011;65671;49.976;20.038;2023-03-31T02:15:33;6.47;;;5.10;;
76745;SDS011;65671;49.976;20.038;2023-03-31T02:18:02;8.10;;;5.35;;
76745;SDS011;65671;49.976;20.038;2023-03-31T02:20:35;8.77;;;5.85;;
76745;SDS011;65671;49.976;20.038;2023-03-31T02:23:08;9.48;;;5.65;;
76745;SDS011;65671;49.976;20.038;2023-03-31T02:25:45;7.57;;;5.28;;
76745;SDS011;65671;49.976;20.038;2023-03-31T02:28:21;10.05;;;5.05;;
76745;SDS011;65671;49.976;20.038;2023-03-31T02:36:00;8.52;;;4.50;;
76745;SDS011;65671;49.976;20.038;2023-03-31T02:38:27;6.88;;;4.45;;
76745;SDS011;65671;49.976;20.038;2023-03-31T02:40:55;8.35;;;4.50;;
76745;SDS011;65671;49.976;20.038;2023-03-31T02:43:21;7.47;;;4.80;;
76745;SDS011;65671;49.976;20.038;2023-03-31T02:45:48;6.05;;;4.53;;
76745;SDS011;65671;49.976;20.038;2023-03-31T02:48:16;6.63;;;4.07;;
76745;SDS011;65671;49.976;20.038;2023-03-31T02:50:52;6.55;;;4.28;;
76745;SDS011;65671;49.976;20.038;2023-03-31T02:56:44;5.63;;;3.88;;
76745;SDS011;65671;49.976;20.038;2023-03-31T03:07:30;6.40;;;4.00;;
76745;SDS011;65671;49.976;20.038;2023-03-31T03:10:11;5.65;;;3.70;;
76745;SDS011;65671;49.976;20.038;2023-03-31T03:15:27;4.90;;;3.17;;
76745;SDS011;65671;49.976;20.038;2023-03-31T03:17:57;5.60;;;3.75;;
76745;SDS011;65671;49.976;20.038;2023-03-31T03:20:23;4.80;;;3.17;;
76745;SDS011;65671;49.976;20.038;2023-03-31T03:22:49;7.22;;;4.18;;
76745;SDS011;65671;49.976;20.038;2023-03-31T03:25:15;5.28;;;3.10;;
76745;SDS011;65671;49.976;20.038;2023-03-31T03:27:42;5.90;;;3.53;;
76745;SDS011;65671;49.976;20.038;2023-03-31T03:30:09;6.15;;;3.30;;
76745;SDS011;65671;49.976;20.038;2023-03-31T03:32:36;6.70;;;3.80;;
76745;SDS011;65671;49.976;20.038;2023-03-31T03:35:03;5.40;;;3.15;;
76745;SDS011;65671;49.976;20.038;2023-03-31T03:37:30;4.53;;;3.25;;
76745;SDS011;65671;49.976;20.038;2023-03-31T03:39:56;4.65;;;2.65;;
76745;SDS011;65671;49.976;20.038;2023-03-31T03:42:22;4.40;;;3.10;;
76745;SDS011;65671;49.976;20.038;2023-03-31T03:44:47;5.72;;;3.40;;
76745;SDS011;65671;49.976;20.038;2023-03-31T03:47:13;5.40;;;3.45;;
76745;SDS011;65671;49.976;20.038;2023-03-31T03:49:39;5.05;;;3.03;;
76745;SDS011;65671;49.976;20.038;2023-03-31T03:52:05;5.32;;;3.30;;
76745;SDS011;65671;49.976;20.038;2023-03-31T03:54:30;4.75;;;3.00;;
76745;SDS011;65671;49.976;20.038;2023-03-31T03:56:56;6.38;;;3.85;;
76745;SDS011;65671;49.976;20.038;2023-03-31T03:59:22;6.57;;;3.38;;
76745;SDS011;65671;49.976;20.038;2023-03-31T04:01:47;7.13;;;3.00;;
76745;SDS011;65671;49.976;20.038;2023-03-31T04:04:13;5.78;;;2.75;;
76745;SDS011;65671;49.976;20.038;2023-03-31T04:06:40;4.85;;;2.97;;
76745;SDS011;65671;49.976;20.038;2023-03-31T04:09:06;6.97;;;3.47;;
76745;SDS011;65671;49.976;20.038;2023-03-31T04:11:32;4.85;;;2.55;;
76745;SDS011;65671;49.976;20.038;2023-03-31T04:13:58;5.10;;;3.17;;
76745;SDS011;65671;49.976;20.038;2023-03-31T04:16:24;5.25;;;2.83;;
76745;SDS011;65671;49.976;20.038;2023-03-31T04:18:50;6.25;;;3.08;;
76745;SDS011;65671;49.976;20.038;2023-03-31T04:21:20;4.43;;;3.03;;
76745;SDS011;65671;49.976;20.038;2023-03-31T04:23:47;6.93;;;3.35;;
76745;SDS011;65671;49.976;20.038;2023-03-31T04:26:27;8.20;;;4.03;;
76745;SDS011;65671;49.976;20.038;2023-03-31T04:29:14;5.78;;;4.40;;
76745;SDS011;65671;49.976;20.038;2023-03-31T04:31:40;4.95;;;3.60;;
76745;SDS011;65671;49.976;20.038;2023-03-31T04:34:07;6.53;;;3.63;;
76745;SDS011;65671;49.976;20.038;2023-03-31T04:36:40;6.63;;;3.60;;
76745;SDS011;65671;49.976;20.038;2023-03-31T04:39:11;5.40;;;3.80;;
76745;SDS011;65671;49.976;20.038;2023-03-31T04:41:38;5.45;;;3.90;;
76745;SDS011;65671;49.976;20.038;2023-03-31T04:44:04;6.47;;;3.42;;
76745;SDS011;65671;49.976;20.038;2023-03-31T04:46:30;5.65;;;3.80;;
76745;SDS011;65671;49.976;20.038;2023-03-31T04:48:57;7.43;;;3.60;;
76745;SDS011;65671;49.976;20.038;2023-03-31T04:51:23;6.43;;;3.47;;
76745;SDS011;65671;49.976;20.038;2023-03-31T04:53:49;6.00;;;3.95;;
76745;SDS011;65671;49.976;20.038;2023-03-31T04:56:15;4.55;;;3.10;;
76745;SDS011;65671;49.976;20.038;2023-03-31T04:58:40;5.30;;;3.10;;
76745;SDS011;65671;49.976;20.038;2023-03-31T05:01:06;5.57;;;3.58;;
76745;SDS011;65671;49.976;20.038;2023-03-31T05:03:32;5.80;;;3.50;;
76745;SDS011;65671;49.976;20.038;2023-03-31T05:05:58;5.80;;;3.63;;
76745;SDS011;65671;49.976;20.038;2023-03-31T05:08:24;4.65;;;3.40;;
76745;SDS011;65671;49.976;20.038;2023-03-31T05:10:51;5.88;;;3.50;;
76745;SDS011;65671;49.976;20.038;2023-03-31T05:13:16;5.95;;;4.25;;
76745;SDS011;65671;49.976;20.038;2023-03-31T05:15:42;5.00;;;3.35;;
76745;SDS011;65671;49.976;20.038;2023-03-31T05:18:09;7.13;;;3.58;;
76745;SDS011;65671;49.976;20.038;2023-03-31T05:20:35;5.70;;;3.92;;
76745;SDS011;65671;49.976;20.038;2023-03-31T05:23:01;8.27;;;4.18;;
76745;SDS011;65671;49.976;20.038;2023-03-31T05:25:27;6.82;;;4.53;;
76745;SDS011;65671;49.976;20.038;2023-03-31T05:27:57;7.45;;;4.45;;
76745;SDS011;65671;49.976;20.038;2023-03-31T05:30:24;5.78;;;3.80;;
76745;SDS011;65671;49.976;20.038;2023-03-31T05:32:50;6.25;;;3.78;;
76745;SDS011;65671;49.976;20.038;2023-03-31T05:35:16;5.47;;;3.50;;
76745;SDS011;65671;49.976;20.038;2023-03-31T05:37:42;6.90;;;3.42;;
76745;SDS011;65671;49.976;20.038;2023-03-31T05:40:08;4.50;;;3.83;;
76745;SDS011;65671;49.976;20.038;2023-03-31T05:42:34;6.28;;;3.30;;
76745;SDS011;65671;49.976;20.038;2023-03-31T05:45:01;7.15;;;3.50;;
76745;SDS011;65671;49.976;20.038;2023-03-31T05:47:26;4.90;;;3.28;;
76745;SDS011;65671;49.976;20.038;2023-03-31T05:49:52;6.43;;;3.70;;
76745;SDS011;65671;49.976;20.038;2023-03-31T05:52:17;6.28;;;3.58;;
76745;SDS011;65671;49.976;20.038;2023-03-31T05:54:43;6.25;;;3.63;;
76745;SDS011;65671;49.976;20.038;2023-03-31T05:57:08;7.05;;;3.92;;
76745;SDS011;65671;49.976;20.038;2023-03-31T05:59:34;6.97;;;4.18;;
76745;SDS011;65671;49.976;20.038;2023-03-31T06:02:03;5.10;;;3.45;;
76745;SDS011;65671;49.976;20.038;2023-03-31T06:04:29;5.25;;;3.58;;
76745;SDS011;65671;49.976;20.038;2023-03-31T06:06:57;6.95;;;3.83;;
76745;SDS011;65671;49.976;20.038;2023-03-31T06:09:23;5.80;;;3.20;;
76745;SDS011;65671;49.976;20.038;2023-03-31T06:11:50;4.03;;;3.00;;
76745;SDS011;65671;49.976;20.038;2023-03-31T06:14:16;4.82;;;3.20;;
76745;SDS011;65671;49.976;20.038;2023-03-31T06:16:41;5.63;;;3.40;;
76745;SDS011;65671;49.976;20.038;2023-03-31T06:19:07;4.60;;;2.95;;
76745;SDS011;65671;49.976;20.038;2023-03-31T06:21:32;5.28;;;2.90;;
76745;SDS011;65671;49.976;20.038;2023-03-31T06:23:58;4.93;;;3.30;;
76745;SDS011;65671;49.976;20.038;2023-03-31T06:26:24;3.58;;;2.60;;
76745;SDS011;65671;49.976;20.038;2023-03-31T06:28:50;5.85;;;2.95;;
76745;SDS011;65671;49.976;20.038;2023-03-31T06:31:17;3.70;;;2.90;;
76745;SDS011;65671;49.976;20.038;2023-03-31T06:33:45;4.00;;;2.90;;
76745;SDS011;65671;49.976;20.038;2023-03-31T06:36:12;5.25;;;3.00;;
76745;SDS011;65671;49.976;20.038;2023-03-31T06:38:39;5.25;;;3.30;;
76745;SDS011;65671;49.976;20.038;2023-03-31T06:41:05;6.70;;;3.03;;
76745;SDS011;65671;49.976;20.038;2023-03-31T06:43:32;4.63;;;3.05;;
76745;SDS011;65671;49.976;20.038;2023-03-31T06:45:58;4.80;;;2.88;;
76745;SDS011;65671;49.976;20.038;2023-03-31T06:48:25;6.50;;;3.60;;
76745;SDS011;65671;49.976;20.038;2023-03-31T06:50:52;4.88;;;2.95;;
76745;SDS011;65671;49.976;20.038;2023-03-31T06:53:18;4.65;;;2.88;;
76745;SDS011;65671;49.976;20.038;2023-03-31T06:55:44;5.45;;;3.00;;
76745;SDS011;65671;49.976;20.038;2023-03-31T06:58:10;4.97;;;3.08;;
76745;SDS011;65671;49.976;20.038;2023-03-31T07:00:36;6.25;;;2.83;;
76745;SDS011;65671;49.976;20.038;2023-03-31T07:03:02;3.97;;;2.88;;
76745;SDS011;65671;49.976;20.038;2023-03-31T07:05:29;4.53;;;2.70;;
76745;SDS011;65671;49.976;20.038;2023-03-31T07:07:57;3.58;;;2.50;;
76745;SDS011;65671;49.976;20.038;2023-03-31T07:10:24;5.68;;;2.85;;
76745;SDS011;65671;49.976;20.038;2023-03-31T07:12:51;5.25;;;3.03;;
76745;SDS011;65671;49.976;20.038;2023-03-31T07:15:18;5.05;;;3.03;;
76745;SDS011;65671;49.976;20.038;2023-03-31T07:17:43;5.10;;;2.88;;
76745;SDS011;65671;49.976;20.038;2023-03-31T07:20:10;8.23;;;4.22;;
76745;SDS011;65671;49.976;20.038;2023-03-31T07:22:38;3.75;;;2.60;;
76745;SDS011;65671;49.976;20.038;2023-03-31T07:25:05;4.38;;;2.72;;
76745;SDS011;65671;49.976;20.038;2023-03-31T07:27:32;5.75;;;2.70;;
76745;SDS011;65671;49.976;20.038;2023-03-31T07:29:57;6.35;;;3.03;;
76745;SDS011;65671;49.976;20.038;2023-03-31T07:32:23;3.92;;;2.50;;
76745;SDS011;65671;49.976;20.038;2023-03-31T07:34:48;6.72;;;2.30;;
76745;SDS011;65671;49.976;20.038;2023-03-31T07:37:14;4.78;;;2.65;;
76745;SDS011;65671;49.976;20.038;2023-03-31T07:39:39;6.00;;;2.55;;
76745;SDS011;65671;49.976;20.038;2023-03-31T07:42:05;6.13;;;2.30;;
76745;SDS011;65671;49.976;20.038;2023-03-31T07:44:34;3.88;;;2.40;;
76745;SDS011;65671;49.976;20.038;2023-03-31T07:47:00;6.75;;;2.83;;
76745;SDS011;65671;49.976;20.038;2023-03-31T07:49:32;5.38;;;2.45;;
76745;SDS011;65671;49.976;20.038;2023-03-31T07:51:59;6.30;;;2.38;;
76745;SDS011;65671;49.976;20.038;2023-03-31T07:54:25;3.83;;;2.30;;
76745;SDS011;65671;49.976;20.038;2023-03-31T07:56:51;3.80;;;2.95;;
76745;SDS011;65671;49.976;20.038;2023-03-31T07:59:17;6.38;;;2.50;;
76745;SDS011;65671;49.976;20.038;2023-03-31T08:01:43;3.53;;;2.15;;
76745;SDS011;65671;49.976;20.038;2023-03-31T08:04:10;5.47;;;2.17;;
76745;SDS011;65671;49.976;20.038;2023-03-31T08:06:37;3.05;;;2.30;;
76745;SDS011;65671;49.976;20.038;2023-03-31T08:09:04;4.05;;;2.20;;
76745;SDS011;65671;49.976;20.038;2023-03-31T08:11:32;3.13;;;2.17;;
76745;SDS011;65671;49.976;20.038;2023-03-31T08:13:58;3.75;;;2.50;;
76745;SDS011;65671;49.976;20.038;2023-03-31T08:16:24;4.07;;;2.30;;
76745;SDS011;65671;49.976;20.038;2023-03-31T08:18:50;5.57;;;2.60;;
76745;SDS011;65671;49.976;20.038;2023-03-31T08:21:16;5.15;;;2.65;;
76745;SDS011;65671;49.976;20.038;2023-03-31T08:23:41;5.13;;;3.58;;
76745;SDS011;65671;49.976;20.038;2023-03-31T08:26:14;5.35;;;2.75;;
76745;SDS011;65671;49.976;20.038;2023-03-31T08:28:45;7.47;;;2.60;;
76745;SDS011;65671;49.976;20.038;2023-03-31T08:31:15;5.40;;;2.70;;
76745;SDS011;65671;49.976;20.038;2023-03-31T08:33:43;3.50;;;2.35;;
76745;SDS011;65671;49.976;20.038;2023-03-31T08:36:10;3.05;;;2.28;;
76745;SDS011;65671;49.976;20.038;2023-03-31T08:38:37;4.50;;;2.35;;
76745;SDS011;65671;49.976;20.038;2023-03-31T08:44:16;4.10;;;2.03;;
76745;SDS011;65671;49.976;20.038;2023-03-31T08:47:06;3.38;;;2.20;;
76745;SDS011;65671;49.976;20.038;2023-03-31T08:49:44;4.68;;;2.67;;
76745;SDS011;65671;49.976;20.038;2023-03-31T08:52:15;5.13;;;2.10;;
76745;SDS011;65671;49.976;20.038;2023-03-31T08:54:57;4.65;;;2.45;;
76745;SDS011;65671;49.976;20.038;2023-03-31T08:58:12;5.97;;;2.45;;
76745;SDS011;65671;49.976;20.038;2023-03-31T09:00:30;5.80;;;2.38;;
76745;SDS011;65671;49.976;20.038;2023-03-31T09:03:06;4.68;;;2.17;;
76745;SDS011;65671;49.976;20.038;2023-03-31T09:10:58;4.82;;;2.30;;
76745;SDS011;65671;49.976;20.038;2023-03-31T09:16:14;4.15;;;2.10;;
76745;SDS011;65671;49.976;20.038;2023-03-31T09:18:46;3.35;;;2.10;;
76745;SDS011;65671;49.976;20.038;2023-03-31T09:21:25;4.55;;;2.28;;
76745;SDS011;65671;49.976;20.038;2023-03-31T09:24:05;3.50;;;1.80;;
76745;SDS011;65671;49.976;20.038;2023-03-31T09:26:54;3.22;;;1.98;;
76745;SDS011;65671;49.976;20.038;2023-03-31T09:29:25;3.40;;;1.88;;
76745;SDS011;65671;49.976;20.038;2023-03-31T09:32:00;5.00;;;2.03;;
76745;SDS011;65671;49.976;20.038;2023-03-31T09:36:55;7.22;;;2.85;;
76745;SDS011;65671;49.976;20.038;2023-03-31T09:39:21;7.10;;;3.17;;
76745;SDS011;65671;49.976;20.038;2023-03-31T09:41:48;7.57;;;3.40;;
76745;SDS011;65671;49.976;20.038;2023-03-31T09:44:28;4.55;;;2.10;;
76745;SDS011;65671;49.976;20.038;2023-03-31T09:46:54;2.95;;;1.75;;
76745;SDS011;65671;49.976;20.038;2023-03-31T09:49:24;5.18;;;1.92;;
76745;SDS011;65671;49.976;20.038;2023-03-31T09:52:03;4.68;;;2.28;;
76745;SDS011;65671;49.976;20.038;2023-03-31T09:54:35;3.85;;;2.13;;
76745;SDS011;65671;49.976;20.038;2023-03-31T09:57:14;3.92;;;1.52;;
76745;SDS011;65671;49.976;20.038;2023-03-31T10:02:39;5.50;;;2.08;;
76745;SDS011;65671;49.976;20.038;2023-03-31T10:05:31;5.43;;;2.45;;
76745;SDS011;65671;49.976;20.038;2023-03-31T10:10:44;3.70;;;1.75;;
76745;SDS011;65671;49.976;20.038;2023-03-31T10:13:14;6.50;;;2.13;;
76745;SDS011;65671;49.976;20.038;2023-03-31T10:15:42;4.30;;;1.88;;
76745;SDS011;65671;49.976;20.038;2023-03-31T10:18:12;3.70;;;1.85;;
76745;SDS011;65671;49.976;20.038;2023-03-31T10:20:44;12.85;;;2.05;;
76745;SDS011;65671;49.976;20.038;2023-03-31T10:23:26;4.03;;;1.65;;
76745;SDS011;65671;49.976;20.038;2023-03-31T10:25:53;3.35;;;1.80;;
76745;SDS011;65671;49.976;20.038;2023-03-31T10:28:20;3.05;;;1.95;;
76745;SDS011;65671;49.976;20.038;2023-03-31T10:30:55;5.50;;;1.52;;
76745;SDS011;65671;49.976;20.038;2023-03-31T10:33:28;4.35;;;1.63;;
76745;SDS011;65671;49.976;20.038;2023-03-31T10:38:34;3.05;;;1.50;;
76745;SDS011;65671;49.976;20.038;2023-03-31T10:43:43;2.85;;;1.50;;
76745;SDS011;65671;49.976;20.038;2023-03-31T10:46:16;2.50;;;1.70;;
76745;SDS011;65671;49.976;20.038;2023-03-31T10:48:42;4.88;;;1.92;;
76745;SDS011;65671;49.976;20.038;2023-03-31T10:53:47;2.53;;;1.70;;
76745;SDS011;65671;49.976;20.038;2023-03-31T11:01:54;2.60;;;1.63;;
76745;SDS011;65671;49.976;20.038;2023-03-31T11:07:34;3.90;;;1.80;;
76745;SDS011;65671;49.976;20.038;2023-03-31T11:15:49;3.10;;;1.83;;
76745;SDS011;65671;49.976;20.038;2023-03-31T11:21:17;3.38;;;1.80;;
76745;SDS011;65671;49.976;20.038;2023-03-31T11:41:14;5.70;;;2.53;;
76745;SDS011;65671;49.976;20.038;2023-03-31T11:43:48;4.38;;;2.13;;
76745;SDS011;65671;49.976;20.038;2023-03-31T11:46:21;5.25;;;2.50;;
76745;SDS011;65671;49.976;20.038;2023-03-31T11:53:51;4.97;;;2.00;;
76745;SDS011;65671;49.976;20.038;2023-03-31T11:56:20;2.92;;;1.95;;
76745;SDS011;65671;49.976;20.038;2023-03-31T11:58:50;6.07;;;2.92;;
76745;SDS011;65671;49.976;20.038;2023-03-31T12:01:24;2.60;;;1.58;;
76745;SDS011;65671;49.976;20.038;2023-03-31T12:03:59;2.83;;;1.58;;
76745;SDS011;65671;49.976;20.038;2023-03-31T12:06:49;3.58;;;1.85;;
76745;SDS011;65671;49.976;20.038;2023-03-31T12:11:52;3.72;;;2.22;;
76745;SDS011;65671;49.976;20.038;2023-03-31T12:14:42;4.13;;;1.92;;
76745;SDS011;65671;49.976;20.038;2023-03-31T12:17:18;3.42;;;1.48;;
76745;SDS011;65671;49.976;20.038;2023-03-31T12:19:48;6.03;;;2.45;;
76745;SDS011;65671;49.976;20.038;2023-03-31T12:22:19;4.40;;;2.47;;
76745;SDS011;65671;49.976;20.038;2023-03-31T12:24:50;5.75;;;1.73;;
76745;SDS011;65671;49.976;20.038;2023-03-31T12:27:24;4.10;;;2.35;;
76745;SDS011;65671;49.976;20.038;2023-03-31T12:29:57;6.13;;;2.38;;
76745;SDS011;65671;49.976;20.038;2023-03-31T12:32:28;5.30;;;2.90;;
76745;SDS011;65671;49.976;20.038;2023-03-31T12:35:01;5.20;;;2.55;;
76745;SDS011;65671;49.976;20.038;2023-03-31T12:45:42;6.07;;;2.35;;
76745;SDS011;65671;49.976;20.038;2023-03-31T12:51:24;4.78;;;2.45;;
76745;SDS011;65671;49.976;20.038;2023-03-31T12:59:33;9.10;;;1.95;;
76745;SDS011;65671;49.976;20.038;2023-03-31T13:04:39;5.18;;;1.80;;
76745;SDS011;65671;49.976;20.038;2023-03-31T13:07:39;3.83;;;1.60;;
76745;SDS011;65671;49.976;20.038;2023-03-31T13:10:22;3.05;;;1.52;;
76745;SDS011;65671;49.976;20.038;2023-03-31T13:15:49;4.10;;;1.98;;
76745;SDS011;65671;49.976;20.038;2023-03-31T13:18:20;6.45;;;2.58;;
76745;SDS011;65671;49.976;20.038;2023-03-31T13:20:56;5.97;;;2.60;;
76745;SDS011;65671;49.976;20.038;2023-03-31T13:23:33;5.20;;;2.08;;
76745;SDS011;65671;49.976;20.038;2023-03-31T13:26:00;7.35;;;2.13;;
76745;SDS011;65671;49.976;20.038;2023-03-31T13:28:27;6.68;;;3.00;;
76745;SDS011;65671;49.976;20.038;2023-03-31T13:35:56;6.85;;;2.40;;
76745;SDS011;65671;49.976;20.038;2023-03-31T13:41:21;10.27;;;3.92;;
76745;SDS011;65671;49.976;20.038;2023-03-31T13:43:53;15.48;;;6.55;;
76745;SDS011;65671;49.976;20.038;2023-03-31T13:46:53;24.60;;;8.95;;
76745;SDS011;65671;49.976;20.038;2023-03-31T13:52:09;4.75;;;2.35;;
76745;SDS011;65671;49.976;20.038;2023-03-31T14:05:24;12.48;;;5.43;;
76745;SDS011;65671;49.976;20.038;2023-03-31T14:07:58;5.63;;;1.90;;
76745;SDS011;65671;49.976;20.038;2023-03-31T14:10:37;4.00;;;1.90;;
76745;SDS011;65671;49.976;20.038;2023-03-31T14:13:16;4.47;;;1.67;;
76745;SDS011;65671;49.976;20.038;2023-03-31T14:18:15;7.75;;;1.73;;
76745;SDS011;65671;49.976;20.038;2023-03-31T14:23:38;6.55;;;2.20;;
76745;SDS011;65671;49.976;20.038;2023-03-31T14:34:49;4.88;;;1.90;;
76745;SDS011;65671;49.976;20.038;2023-03-31T14:37:29;7.03;;;2.53;;
76745;SDS011;65671;49.976;20.038;2023-03-31T14:39:55;5.75;;;2.88;;
76745;SDS011;65671;49.976;20.038;2023-03-31T14:42:25;6.72;;;3.10;;
76745;SDS011;65671;49.976;20.038;2023-03-31T14:44:57;7.20;;;3.22;;
76745;SDS011;65671;49.976;20.038;2023-03-31T14:47:27;9.30;;;4.18;;
76745;SDS011;65671;49.976;20.038;2023-03-31T14:50:00;6.50;;;3.33;;
76745;SDS011;65671;49.976;20.038;2023-03-31T14:52:48;4.72;;;2.15;;
76745;SDS011;65671;49.976;20.038;2023-03-31T14:55:17;3.47;;;1.80;;
76745;SDS011;65671;49.976;20.038;2023-03-31T14:57:48;4.03;;;2.13;;
76745;SDS011;65671;49.976;20.038;2023-03-31T15:00:21;2.78;;;1.20;;
76745;SDS011;65671;49.976;20.038;2023-03-31T15:02:51;3.58;;;1.70;;
76745;SDS011;65671;49.976;20.038;2023-03-31T15:05:35;3.40;;;1.58;;
76745;SDS011;65671;49.976;20.038;2023-03-31T15:08:06;2.80;;;1.70;;
76745;SDS011;65671;49.976;20.038;2023-03-31T15:10:37;4.30;;;1.88;;
76745;SDS011;65671;49.976;20.038;2023-03-31T15:13:11;6.32;;;2.00;;
76745;SDS011;65671;49.976;20.038;2023-03-31T15:15:43;4.10;;;2.40;;
76745;SDS011;65671;49.976;20.038;2023-03-31T15:18:14;2.53;;;1.77;;
76745;SDS011;65671;49.976;20.038;2023-03-31T15:20:41;3.03;;;1.75;;
76745;SDS011;65671;49.976;20.038;2023-03-31T15:23:24;5.18;;;1.60;;
76745;SDS011;65671;49.976;20.038;2023-03-31T15:25:55;3.20;;;1.80;;
76745;SDS011;65671;49.976;20.038;2023-03-31T15:28:23;3.58;;;1.85;;
76745;SDS011;65671;49.976;20.038;2023-03-31T15:30:53;5.25;;;2.00;;
76745;SDS011;65671;49.976;20.038;2023-03-31T15:33:25;3.67;;;1.92;;
76745;SDS011;65671;49.976;20.038;2023-03-31T15:35:57;4.13;;;2.30;;
76745;SDS011;65671;49.976;20.038;2023-03-31T15:38:23;4.88;;;2.25;;
76745;SDS011;65671;49.976;20.038;2023-03-31T15:40:53;5.45;;;2.20;;
76745;SDS011;65671;49.976;20.038;2023-03-31T15:43:31;5.85;;;2.13;;
76745;SDS011;65671;49.976;20.038;2023-03-31T15:46:10;4.20;;;2.92;;
76745;SDS011;65671;49.976;20.038;2023-03-31T15:48:52;5.25;;;2.88;;
76745;SDS011;65671;49.976;20.038;2023-03-31T15:51:33;6.03;;;2.92;;
76745;SDS011;65671;49.976;20.038;2023-03-31T15:54:25;5.88;;;3.30;;
76745;SDS011;65671;49.976;20.038;2023-03-31T15:56:58;8.25;;;3.75;;
76745;SDS011;65671;49.976;20.038;2023-03-31T15:59:26;7.43;;;4.07;;
76745;SDS011;65671;49.976;20.038;2023-03-31T16:01:55;8.07;;;4.75;;
76745;SDS011;65671;49.976;20.038;2023-03-31T16:04:24;6.55;;;4.10;;
76745;SDS011;65671;49.976;20.038;2023-03-31T16:07:05;8.93;;;4.25;;
76745;SDS011;65671;49.976;20.038;2023-03-31T16:09:43;7.97;;;4.63;;
76745;SDS011;65671;49.976;20.038;2023-03-31T16:12:16;11.15;;;5.43;;
76745;SDS011;65671;49.976;20.038;2023-03-31T16:14:49;9.52;;;4.35;;
76745;SDS011;65671;49.976;20.038;2023-03-31T16:17:34;9.55;;;5.05;;
76745;SDS011;65671;49.976;20.038;2023-03-31T16:20:15;6.85;;;3.90;;
76745;SDS011;65671;49.976;20.038;2023-03-31T16:22:52;9.23;;;4.25;;
76745;SDS011;65671;49.976;20.038;2023-03-31T16:25:23;7.53;;;3.95;;
76745;SDS011;65671;49.976;20.038;2023-03-31T16:27:55;8.13;;;4.05;;
76745;SDS011;65671;49.976;20.038;2023-03-31T16:30:56;8.13;;;3.90;;
76745;SDS011;65671;49.976;20.038;2023-03-31T16:33:16;13.98;;;6.10;;
76745;SDS011;65671;49.976;20.038;2023-03-31T16:35:44;11.15;;;5.75;;
76745;SDS011;65671;49.976;20.038;2023-03-31T16:38:23;12.70;;;6.25;;
76745;SDS011;65671;49.976;20.038;2023-03-31T16:40:53;13.45;;;7.07;;
76745;SDS011;65671;49.976;20.038;2023-03-31T16:45:54;9.95;;;4.63;;
76745;SDS011;65671;49.976;20.038;2023-03-31T16:48:22;9.32;;;5.18;;
76745;SDS011;65671;49.976;20.038;2023-03-31T16:50:50;7.80;;;4.40;;
76745;SDS011;65671;49.976;20.038;2023-03-31T16:53:21;7.00;;;3.90;;
76745;SDS011;65671;49.976;20.038;2023-03-31T16:55:50;7.78;;;4.55;;
76745;SDS011;65671;49.976;20.038;2023-03-31T16:58:16;7.75;;;4.70;;
76745;SDS011;65671;49.976;20.038;2023-03-31T17:00:42;10.48;;;4.95;;
76745;SDS011;65671;49.976;20.038;2023-03-31T17:03:09;10.68;;;5.00;;
76745;SDS011;65671;49.976;20.038;2023-03-31T17:05:37;7.97;;;5.03;;
76745;SDS011;65671;49.976;20.038;2023-03-31T17:08:04;16.50;;;6.72;;
76745;SDS011;65671;49.976;20.038;2023-03-31T17:10:29;14.60;;;8.05;;
76745;SDS011;65671;49.976;20.038;2023-03-31T17:12:55;14.32;;;7.90;;
76745;SDS011;65671;49.976;20.038;2023-03-31T17:15:20;15.82;;;8.65;;
76745;SDS011;65671;49.976;20.038;2023-03-31T17:17:47;19.00;;;9.18;;
76745;SDS011;65671;49.976;20.038;2023-03-31T17:20:13;17.85;;;8.77;;
76745;SDS011;65671;49.976;20.038;2023-03-31T17:22:39;21.30;;;10.93;;
76745;SDS011;65671;49.976;20.038;2023-03-31T17:25:06;22.80;;;12.07;;
76745;SDS011;65671;49.976;20.038;2023-03-31T17:27:32;22.25;;;10.60;;
76745;SDS011;65671;49.976;20.038;2023-03-31T17:29:58;20.80;;;10.02;;
76745;SDS011;65671;49.976;20.038;2023-03-31T17:32:24;16.08;;;9.07;;
76745;SDS011;65671;49.976;20.038;2023-03-31T17:34:50;16.83;;;8.52;;
76745;SDS011;65671;49.976;20.038;2023-03-31T17:37:16;12.48;;;7.00;;
76745;SDS011;65671;49.976;20.038;2023-03-31T17:39:42;14.73;;;7.82;;
76745;SDS011;65671;49.976;20.038;2023-03-31T17:42:09;16.30;;;7.15;;
76745;SDS011;65671;49.976;20.038;2023-03-31T17:44:35;13.77;;;7.18;;